Terminal Aerodrome Forecast
Issued by NWS Jackson, MS

Current Version | Previous Version | Text Only | Print | Product List | Glossary On
Versions: 1 2 3 4 5 6 7 8 9 10 11 12 13 14 15 16 17
000
FTUS44 KJAN 230200 AAA
TAFJAN
TAF AMD
KJAN 230244Z 2303/2324 06006KT P6SM VCTS SCT040CB BKN250
     FM230400 08003KT P6SM SCT100 BKN250
     FM231000 00000KT 5SM BR SCT250
     FM231300 35003KT P6SM SCT250
     FM231900 34005KT P6SM VCTS SCT050CB BKN150=

USA.gov is the U.S. government's official web portal to all federal, state and local government web resources and services.